ETH601 OMDB-HAAB
Flight info
| Callsign | ETH601 |
|---|---|
| Flight time | N/A |
| Altitude | 35000 |
| Route | ANVIX R401 GIDIS G783 UKRAG L710 KUKDI/N0468F360 B400 NODMA L702 ULALI T701 TORBA UB535 LAKBE LAKBE3A |
| Aircraft | B38M/M-SDE1FGHILORVWXY/HB1 |
Departure
| Time | 2026-04-23 12:21 |
|---|---|
| Airport | Dubai International Airport (OMDB) |
Arrival
| Time | N/A |
|---|---|
| Airport | Addis Ababa Bole International Airport (HAAB) |
| Time | Latitude | Longitude | Altitude | Speed | Heading |
|---|---|---|---|---|---|
| 2026-04-23 11:31 | 25.24764 | 55.36492 | 26 ft | 0 kts | 211° |
| 2026-04-23 11:53 | 25.24765 | 55.36492 | 24 ft | 1 kts | 211° |
| 2026-04-23 11:53 | 25.24786 | 55.36506 | 31 ft | 4 kts | 211° |
| 2026-04-23 11:54 | 25.24809 | 55.36522 | 28 ft | 4 kts | 216° |
| 2026-04-23 11:54 | 25.24828 | 55.36541 | 27 ft | 4 kts | 233° |
| 2026-04-23 11:54 | 25.24839 | 55.36567 | 26 ft | 4 kts | 271° |
| 2026-04-23 11:54 | 25.24834 | 55.36584 | 26 ft | 1 kts | 301° |
| 2026-04-23 11:55 | 25.24833 | 55.36587 | 27 ft | 0 kts | 301° |
| 2026-04-23 12:00 | 25.24833 | 55.36586 | 27 ft | 1 kts | 301° |
| 2026-04-23 12:00 | 25.24838 | 55.36577 | 28 ft | 4 kts | 301° |
| 2026-04-23 12:01 | 25.24873 | 55.36515 | 25 ft | 10 kts | 302° |
| 2026-04-23 12:01 | 25.24917 | 55.36447 | 25 ft | 12 kts | 311° |
| 2026-04-23 12:01 | 25.24964 | 55.36409 | 24 ft | 13 kts | 326° |
| 2026-04-23 12:01 | 25.25063 | 55.36343 | 24 ft | 13 kts | 322° |
| 2026-04-23 12:02 | 25.25118 | 55.36263 | 26 ft | 14 kts | 304° |
| 2026-04-23 12:02 | 25.25155 | 55.36202 | 24 ft | 14 kts | 303° |
| 2026-04-23 12:02 | 25.25209 | 55.36104 | 24 ft | 16 kts | 300° |
| 2026-04-23 12:02 | 25.25270 | 55.35995 | 26 ft | 17 kts | 302° |
| 2026-04-23 12:03 | 25.25336 | 55.35897 | 24 ft | 12 kts | 339° |
| 2026-04-23 12:03 | 25.25369 | 55.35898 | 24 ft | 0 kts | 13° |
| 2026-04-23 12:03 | 25.25374 | 55.35900 | 24 ft | 1 kts | 19° |
| 2026-04-23 12:03 | 25.25379 | 55.35902 | 24 ft | 0 kts | 23° |
| 2026-04-23 12:06 | 25.25376 | 55.35908 | 24 ft | 1 kts | 139° |
| 2026-04-23 12:07 | 25.25367 | 55.35907 | 28 ft | 4 kts | 186° |
| 2026-04-23 12:07 | 25.25320 | 55.35931 | 24 ft | 12 kts | 139° |
| 2026-04-23 12:07 | 25.25253 | 55.36032 | 24 ft | 20 kts | 123° |
| 2026-04-23 12:07 | 25.25174 | 55.36174 | 26 ft | 20 kts | 120° |
| 2026-04-23 12:08 | 25.25107 | 55.36294 | 26 ft | 15 kts | 126° |
| 2026-04-23 12:08 | 25.25045 | 55.36396 | 26 ft | 17 kts | 121° |
| 2026-04-23 12:08 | 25.24984 | 55.36509 | 27 ft | 18 kts | 121° |
| 2026-04-23 12:08 | 25.24921 | 55.36621 | 25 ft | 14 kts | 122° |
| 2026-04-23 12:09 | 25.24883 | 55.36724 | 25 ft | 15 kts | 96° |
| 2026-04-23 12:09 | 25.24855 | 55.36832 | 26 ft | 15 kts | 108° |
| 2026-04-23 12:09 | 25.24821 | 55.36913 | 25 ft | 0 kts | 118° |
| 2026-04-23 12:09 | 25.24819 | 55.36918 | 28 ft | 0 kts | 116° |
| 2026-04-23 12:10 | 25.24818 | 55.36919 | 28 ft | 1 kts | 116° |
| 2026-04-23 12:10 | 25.24808 | 55.36941 | 26 ft | 2 kts | 116° |
| 2026-04-23 12:10 | 25.24797 | 55.36967 | 26 ft | 9 kts | 117° |
| 2026-04-23 12:11 | 25.24738 | 55.37059 | 26 ft | 20 kts | 123° |
| 2026-04-23 12:11 | 25.24647 | 55.37220 | 28 ft | 27 kts | 121° |
| 2026-04-23 12:11 | 25.24590 | 55.37324 | 25 ft | 9 kts | 120° |
| 2026-04-23 12:11 | 25.24556 | 55.37386 | 27 ft | 10 kts | 124° |
| 2026-04-23 12:12 | 25.24516 | 55.37455 | 27 ft | 11 kts | 122° |
| 2026-04-23 12:12 | 25.24472 | 55.37532 | 25 ft | 12 kts | 122° |
| 2026-04-23 12:12 | 25.24423 | 55.37619 | 27 ft | 14 kts | 122° |
| 2026-04-23 12:12 | 25.24370 | 55.37714 | 27 ft | 15 kts | 121° |
| 2026-04-23 12:13 | 25.24341 | 55.37813 | 26 ft | 14 kts | 68° |
| 2026-04-23 12:13 | 25.24369 | 55.37845 | 27 ft | 0 kts | 35° |
| 2026-04-23 12:16 | 25.24376 | 55.37850 | 27 ft | 3 kts | 35° |
| 2026-04-23 12:16 | 25.24391 | 55.37862 | 32 ft | 0 kts | 35° |
| 2026-04-23 12:16 | 25.24393 | 55.37863 | 32 ft | 0 kts | 35° |
| 2026-04-23 12:17 | 25.24400 | 55.37869 | 32 ft | 0 kts | 35° |
| 2026-04-23 12:17 | 25.24405 | 55.37873 | 30 ft | 2 kts | 35° |
| 2026-04-23 12:18 | 25.24424 | 55.37887 | 31 ft | 5 kts | 35° |
| 2026-04-23 12:18 | 25.24466 | 55.37920 | 32 ft | 11 kts | 35° |
| 2026-04-23 12:18 | 25.24548 | 55.37983 | 29 ft | 19 kts | 35° |
| 2026-04-23 12:18 | 25.24673 | 55.38071 | 29 ft | 21 kts | 31° |
| 2026-04-23 12:19 | 25.24722 | 55.38103 | 32 ft | 0 kts | 30° |
| 2026-04-23 12:19 | 25.24723 | 55.38103 | 32 ft | 1 kts | 24° |
| 2026-04-23 12:20 | 25.24747 | 55.38109 | 32 ft | 5 kts | 0° |
| 2026-04-23 12:20 | 25.24775 | 55.38085 | 33 ft | 6 kts | 297° |
| 2026-04-23 12:20 | 25.24905 | 55.37849 | 33 ft | 76 kts | 302° |
| 2026-04-23 12:20 | 25.25309 | 55.37120 | 33 ft | 147 kts | 302° |
| 2026-04-23 12:21 | 25.25967 | 55.36002 | 255 ft | 188 kts | 305° |
| 2026-04-23 12:21 | 25.26641 | 55.34789 | 1416 ft | 170 kts | 304° |
| 2026-04-23 12:21 | 25.27251 | 55.33657 | 2240 ft | 181 kts | 303° |
| 2026-04-23 12:21 | 25.27941 | 55.32402 | 2665 ft | 202 kts | 302° |
| 2026-04-23 12:22 | 25.28707 | 55.31005 | 3191 ft | 223 kts | 298° |
| 2026-04-23 12:22 | 25.29103 | 55.29353 | 3964 ft | 226 kts | 267° |
| 2026-04-23 12:22 | 25.28713 | 55.27684 | 4837 ft | 227 kts | 245° |
| 2026-04-23 12:22 | 25.28057 | 55.26068 | 5617 ft | 233 kts | 245° |
| 2026-04-23 12:23 | 25.27381 | 55.24424 | 6437 ft | 238 kts | 244° |
| 2026-04-23 12:23 | 25.26686 | 55.22754 | 6799 ft | 240 kts | 244° |
| 2026-04-23 12:23 | 25.25985 | 55.21084 | 6923 ft | 239 kts | 244° |
| 2026-04-23 12:23 | 25.25283 | 55.19421 | 7004 ft | 240 kts | 244° |
| 2026-04-23 12:24 | 25.24374 | 55.17878 | 7591 ft | 238 kts | 220° |
| 2026-04-23 12:24 | 25.22913 | 55.16981 | 8317 ft | 250 kts | 196° |
| 2026-04-23 12:24 | 25.21159 | 55.16867 | 9062 ft | 255 kts | 178° |
| 2026-04-23 12:24 | 25.19375 | 55.17296 | 9706 ft | 274 kts | 158° |
| 2026-04-23 12:25 | 25.17818 | 55.18619 | 10138 ft | 298 kts | 131° |
| 2026-04-23 12:25 | 25.16804 | 55.20644 | 10922 ft | 302 kts | 120° |
| 2026-04-23 12:25 | 25.15817 | 55.22713 | 11613 ft | 308 kts | 122° |
| 2026-04-23 12:25 | 25.14805 | 55.24809 | 12369 ft | 311 kts | 122° |
| 2026-04-23 12:26 | 25.13781 | 55.26935 | 13118 ft | 316 kts | 122° |
| 2026-04-23 12:26 | 25.12744 | 55.29089 | 13813 ft | 320 kts | 122° |
| 2026-04-23 12:26 | 25.11695 | 55.31270 | 14419 ft | 325 kts | 122° |
| 2026-04-23 12:26 | 25.10650 | 55.33523 | 14668 ft | 331 kts | 118° |
| 2026-04-23 12:27 | 25.09698 | 55.35838 | 14755 ft | 331 kts | 118° |
| 2026-04-23 12:27 | 25.08755 | 55.38108 | 14780 ft | 331 kts | 118° |
| 2026-04-23 12:27 | 25.07776 | 55.40452 | 15091 ft | 333 kts | 118° |
| 2026-04-23 12:27 | 25.06834 | 55.42832 | 15501 ft | 347 kts | 116° |
| 2026-04-23 12:28 | 25.05870 | 55.45352 | 15679 ft | 366 kts | 116° |
| 2026-04-23 12:28 | 25.04855 | 55.47986 | 15948 ft | 380 kts | 116° |
| 2026-04-23 12:28 | 25.03821 | 55.50659 | 16445 ft | 385 kts | 115° |
| 2026-04-23 12:28 | 25.02751 | 55.53421 | 17030 ft | 390 kts | 115° |
| 2026-04-23 12:29 | 25.01585 | 55.56085 | 17543 ft | 392 kts | 124° |
| 2026-04-23 12:29 | 25.00136 | 55.58692 | 18103 ft | 396 kts | 123° |
| 2026-04-23 12:29 | 24.98742 | 55.61275 | 18562 ft | 399 kts | 123° |
| 2026-04-23 12:29 | 24.97329 | 55.63923 | 19079 ft | 402 kts | 123° |
| 2026-04-23 12:30 | 24.95916 | 55.66589 | 19571 ft | 405 kts | 123° |
| 2026-04-23 12:30 | 24.94490 | 55.69275 | 20053 ft | 407 kts | 125° |
| 2026-04-23 12:30 | 24.92838 | 55.71808 | 20516 ft | 409 kts | 130° |
| 2026-04-23 12:30 | 24.91150 | 55.74334 | 20978 ft | 412 kts | 129° |
| 2026-04-23 12:31 | 24.89456 | 55.76897 | 21448 ft | 416 kts | 129° |
| 2026-04-23 12:31 | 24.87757 | 55.79488 | 21885 ft | 419 kts | 129° |
| 2026-04-23 12:31 | 24.86049 | 55.82098 | 22323 ft | 422 kts | 129° |
| 2026-04-23 12:31 | 24.84319 | 55.84727 | 22756 ft | 425 kts | 130° |
| 2026-04-23 12:32 | 24.82550 | 55.87345 | 23186 ft | 429 kts | 130° |
| 2026-04-23 12:32 | 24.80667 | 55.89897 | 23539 ft | 428 kts | 140° |
| 2026-04-23 12:32 | 24.78302 | 55.91835 | 23853 ft | 423 kts | 156° |
| 2026-04-23 12:32 | 24.75572 | 55.92975 | 24169 ft | 418 kts | 172° |
| 2026-04-23 12:33 | 24.72703 | 55.93329 | 24457 ft | 416 kts | 182° |
| 2026-04-23 12:33 | 24.69797 | 55.93416 | 24789 ft | 419 kts | 184° |
| 2026-04-23 12:33 | 24.66880 | 55.93427 | 25150 ft | 420 kts | 185° |
| 2026-04-23 12:33 | 24.63945 | 55.93387 | 25455 ft | 423 kts | 187° |
| 2026-04-23 12:34 | 24.61080 | 55.92819 | 25773 ft | 416 kts | 204° |
| 2026-04-23 12:34 | 24.58520 | 55.91402 | 26036 ft | 411 kts | 219° |
| 2026-04-23 12:34 | 24.56261 | 55.89470 | 26320 ft | 413 kts | 223° |
| 2026-04-23 12:34 | 24.54039 | 55.87462 | 26660 ft | 414 kts | 224° |
| 2026-04-23 12:35 | 24.51840 | 55.85411 | 26979 ft | 416 kts | 225° |
| 2026-04-23 12:35 | 24.49641 | 55.83330 | 27303 ft | 418 kts | 225° |
| 2026-04-23 12:35 | 24.47443 | 55.81230 | 27628 ft | 420 kts | 225° |
| 2026-04-23 12:35 | 24.45235 | 55.79112 | 27954 ft | 422 kts | 225° |
| 2026-04-23 12:36 | 24.43021 | 55.76986 | 28275 ft | 424 kts | 226° |
| 2026-04-23 12:36 | 24.40793 | 55.74846 | 28595 ft | 426 kts | 226° |
| 2026-04-23 12:36 | 24.38562 | 55.72704 | 28898 ft | 428 kts | 226° |
| 2026-04-23 12:36 | 24.36306 | 55.70538 | 29172 ft | 432 kts | 226° |
| 2026-04-23 12:37 | 24.31689 | 55.66110 | 29149 ft | 450 kts | 226° |
| 2026-04-23 12:37 | 24.26830 | 55.61642 | 29481 ft | 462 kts | 217° |
| 2026-04-23 12:38 | 24.23895 | 55.60135 | 29874 ft | 472 kts | 203° |
| 2026-04-23 12:38 | 24.20733 | 55.59133 | 30152 ft | 474 kts | 202° |
| 2026-04-23 12:38 | 24.17561 | 55.58142 | 30433 ft | 474 kts | 201° |
| 2026-04-23 12:38 | 24.14375 | 55.57170 | 30721 ft | 475 kts | 201° |
| 2026-04-23 12:39 | 24.11193 | 55.56213 | 31027 ft | 475 kts | 201° |
| 2026-04-23 12:39 | 24.08009 | 55.55260 | 31326 ft | 475 kts | 201° |
| 2026-04-23 12:39 | 24.04820 | 55.54307 | 31637 ft | 474 kts | 201° |
| 2026-04-23 12:39 | 24.01638 | 55.53357 | 31941 ft | 474 kts | 201° |
| 2026-04-23 12:40 | 23.98453 | 55.52410 | 32248 ft | 474 kts | 201° |
| 2026-04-23 12:40 | 23.95271 | 55.51465 | 32550 ft | 474 kts | 201° |
| 2026-04-23 12:40 | 23.92085 | 55.50518 | 32857 ft | 474 kts | 201° |
| 2026-04-23 12:40 | 23.88904 | 55.49573 | 33165 ft | 474 kts | 201° |
| 2026-04-23 12:41 | 23.85727 | 55.48630 | 33467 ft | 474 kts | 201° |
| 2026-04-23 12:41 | 23.82551 | 55.47686 | 33767 ft | 473 kts | 201° |
| 2026-04-23 12:41 | 23.79369 | 55.46740 | 34027 ft | 473 kts | 201° |
| 2026-04-23 12:41 | 23.76199 | 55.45799 | 34270 ft | 473 kts | 201° |
| 2026-04-23 12:42 | 23.73027 | 55.44858 | 34516 ft | 472 kts | 201° |
| 2026-04-23 12:42 | 23.69852 | 55.43916 | 34724 ft | 472 kts | 201° |
| 2026-04-23 12:42 | 23.63548 | 55.42049 | 34766 ft | 464 kts | 202° |
| 2026-04-23 12:43 | 23.57383 | 55.40223 | 34759 ft | 462 kts | 202° |
| 2026-04-23 12:43 | 23.51006 | 55.39088 | 34744 ft | 477 kts | 181° |
| 2026-04-23 12:44 | 23.44409 | 55.40602 | 34739 ft | 489 kts | 172° |
| 2026-04-23 12:44 | 23.37834 | 55.42603 | 34759 ft | 491 kts | 169° |
| 2026-04-23 12:45 | 23.31277 | 55.44666 | 34756 ft | 491 kts | 169° |
| 2026-04-23 12:45 | 23.24716 | 55.46727 | 34761 ft | 491 kts | 169° |
| 2026-04-23 12:46 | 23.18152 | 55.48788 | 34755 ft | 491 kts | 169° |
| 2026-04-23 12:46 | 23.11592 | 55.50846 | 34762 ft | 491 kts | 169° |
| 2026-04-23 12:47 | 23.05033 | 55.52901 | 34757 ft | 490 kts | 170° |
| 2026-04-23 12:47 | 22.98467 | 55.54920 | 34759 ft | 490 kts | 170° |
| 2026-04-23 12:48 | 22.91904 | 55.56937 | 34762 ft | 490 kts | 170° |
| 2026-04-23 12:48 | 22.85335 | 55.58955 | 34759 ft | 490 kts | 170° |
| 2026-04-23 12:49 | 22.79879 | 55.60629 | 34767 ft | 490 kts | 170° |
| 2026-04-23 12:49 | 22.73313 | 55.62643 | 34763 ft | 490 kts | 170° |
| 2026-04-23 12:50 | 22.66747 | 55.64654 | 34766 ft | 490 kts | 170° |
| 2026-04-23 12:50 | 22.60181 | 55.66665 | 34766 ft | 490 kts | 170° |
| 2026-04-23 12:51 | 22.53610 | 55.68676 | 34764 ft | 491 kts | 170° |
| 2026-04-23 12:51 | 22.47039 | 55.70685 | 34767 ft | 491 kts | 170° |
| 2026-04-23 12:52 | 22.40452 | 55.72697 | 34767 ft | 492 kts | 170° |
| 2026-04-23 12:52 | 22.33857 | 55.74710 | 34769 ft | 493 kts | 170° |
| 2026-04-23 12:53 | 22.27246 | 55.76723 | 34767 ft | 493 kts | 171° |
| 2026-04-23 12:53 | 22.23909 | 55.77342 | 34765 ft | 481 kts | 182° |
| 2026-04-23 12:53 | 22.20567 | 55.77651 | 34766 ft | 484 kts | 181° |
| 2026-04-23 12:54 | 22.13857 | 55.78336 | 34770 ft | 485 kts | 181° |
| 2026-04-23 12:54 | 22.07136 | 55.79006 | 34769 ft | 485 kts | 181° |
| 2026-04-23 12:55 | 22.00415 | 55.79674 | 34767 ft | 485 kts | 181° |
| 2026-04-23 12:55 | 21.93694 | 55.80341 | 34769 ft | 485 kts | 181° |
| 2026-04-23 12:56 | 21.87021 | 55.81003 | 34769 ft | 485 kts | 181° |
| 2026-04-23 12:56 | 21.80299 | 55.81669 | 34772 ft | 485 kts | 181° |
| 2026-04-23 12:57 | 21.73586 | 55.82334 | 34770 ft | 484 kts | 181° |
| 2026-04-23 12:57 | 21.66878 | 55.82995 | 34766 ft | 484 kts | 181° |
| 2026-04-23 12:58 | 21.60169 | 55.83654 | 34772 ft | 484 kts | 181° |
| 2026-04-23 12:58 | 21.53462 | 55.84313 | 34770 ft | 484 kts | 181° |
| 2026-04-23 12:59 | 21.46752 | 55.84971 | 34773 ft | 484 kts | 181° |
| 2026-04-23 12:59 | 21.40049 | 55.85628 | 34768 ft | 484 kts | 181° |
| 2026-04-23 13:00 | 21.33341 | 55.86285 | 34769 ft | 484 kts | 181° |
| 2026-04-23 13:00 | 21.26633 | 55.86941 | 34770 ft | 484 kts | 181° |
| 2026-04-23 13:01 | 21.19919 | 55.87595 | 34768 ft | 484 kts | 181° |
| 2026-04-23 13:01 | 21.13209 | 55.88248 | 34767 ft | 484 kts | 181° |
| 2026-04-23 13:02 | 21.06502 | 55.88901 | 34762 ft | 484 kts | 181° |
| 2026-04-23 13:02 | 20.99792 | 55.89553 | 34769 ft | 484 kts | 181° |
| 2026-04-23 13:03 | 20.93079 | 55.90205 | 34762 ft | 484 kts | 181° |
| 2026-04-23 13:03 | 20.86377 | 55.90856 | 34766 ft | 484 kts | 181° |
| 2026-04-23 13:04 | 20.79663 | 55.91508 | 34760 ft | 484 kts | 181° |
| 2026-04-23 13:04 | 20.72949 | 55.92159 | 34764 ft | 484 kts | 181° |
| 2026-04-23 13:05 | 20.66239 | 55.92809 | 34761 ft | 484 kts | 181° |
| 2026-04-23 13:05 | 20.59562 | 55.93455 | 34762 ft | 484 kts | 181° |
| 2026-04-23 13:06 | 20.49494 | 55.94428 | 34762 ft | 484 kts | 181° |
| 2026-04-23 13:07 | 20.42781 | 55.95077 | 34763 ft | 485 kts | 180° |
| 2026-04-23 13:07 | 20.36063 | 55.95724 | 34765 ft | 485 kts | 180° |
| 2026-04-23 13:08 | 20.29343 | 55.96368 | 34765 ft | 485 kts | 180° |
| 2026-04-23 13:08 | 20.22617 | 55.97010 | 34763 ft | 485 kts | 180° |
| 2026-04-23 13:09 | 20.15879 | 55.97651 | 34766 ft | 486 kts | 180° |
| 2026-04-23 13:09 | 20.09152 | 55.98279 | 34763 ft | 485 kts | 182° |
| 2026-04-23 13:10 | 20.02426 | 55.98413 | 34771 ft | 484 kts | 184° |
| 2026-04-23 13:10 | 19.95697 | 55.98586 | 34769 ft | 484 kts | 184° |
| 2026-04-23 13:11 | 19.88960 | 55.98769 | 34772 ft | 484 kts | 184° |
| 2026-04-23 13:11 | 19.82225 | 55.98953 | 34771 ft | 484 kts | 184° |
| 2026-04-23 13:12 | 19.75497 | 55.99137 | 34770 ft | 484 kts | 184° |
| 2026-04-23 13:12 | 19.68806 | 55.99320 | 34770 ft | 484 kts | 184° |
| 2026-04-23 13:13 | 19.62079 | 55.99503 | 34774 ft | 484 kts | 184° |
| 2026-04-23 13:13 | 19.55355 | 55.99687 | 34776 ft | 483 kts | 184° |
| 2026-04-23 13:13 | 19.52037 | 55.99511 | 34769 ft | 472 kts | 197° |
| 2026-04-23 13:14 | 19.48967 | 55.98478 | 34777 ft | 456 kts | 212° |
| 2026-04-23 13:14 | 19.43366 | 55.95329 | 34782 ft | 456 kts | 215° |
| 2026-04-23 13:15 | 19.37845 | 55.92049 | 34784 ft | 455 kts | 216° |
| 2026-04-23 13:15 | 19.32349 | 55.88727 | 34785 ft | 455 kts | 216° |
| 2026-04-23 13:16 | 19.26855 | 55.85402 | 34784 ft | 455 kts | 216° |
| 2026-04-23 13:16 | 19.21355 | 55.82074 | 34788 ft | 455 kts | 216° |
| 2026-04-23 13:17 | 19.15851 | 55.78746 | 34790 ft | 457 kts | 216° |
| 2026-04-23 13:17 | 19.10330 | 55.75410 | 34790 ft | 458 kts | 215° |
| 2026-04-23 13:18 | 19.04790 | 55.72066 | 34793 ft | 459 kts | 215° |
| 2026-04-23 13:18 | 18.99241 | 55.68720 | 34789 ft | 460 kts | 215° |
| 2026-04-23 13:19 | 18.93685 | 55.65373 | 34794 ft | 461 kts | 215° |
| 2026-04-23 13:19 | 18.88108 | 55.62015 | 34795 ft | 462 kts | 215° |
| 2026-04-23 13:20 | 18.82522 | 55.58654 | 34797 ft | 462 kts | 215° |
| 2026-04-23 13:20 | 18.76929 | 55.55292 | 34798 ft | 463 kts | 215° |
| 2026-04-23 13:21 | 18.71319 | 55.51923 | 34801 ft | 464 kts | 215° |
| 2026-04-23 13:21 | 18.65706 | 55.48553 | 34801 ft | 465 kts | 215° |
| 2026-04-23 13:22 | 18.60076 | 55.45177 | 34798 ft | 465 kts | 216° |
| 2026-04-23 13:22 | 18.54447 | 55.41803 | 34800 ft | 466 kts | 216° |
| 2026-04-23 13:23 | 18.48850 | 55.38452 | 34806 ft | 466 kts | 216° |
| 2026-04-23 13:23 | 18.43218 | 55.35082 | 34799 ft | 465 kts | 216° |
| 2026-04-23 13:24 | 18.37597 | 55.31720 | 34802 ft | 465 kts | 216° |
| 2026-04-23 13:24 | 18.31982 | 55.28367 | 34805 ft | 464 kts | 215° |
| 2026-04-23 13:25 | 18.26365 | 55.25015 | 34803 ft | 464 kts | 215° |
| 2026-04-23 13:25 | 18.20751 | 55.21668 | 34803 ft | 463 kts | 215° |
| 2026-04-23 13:26 | 18.15141 | 55.18329 | 34805 ft | 464 kts | 214° |
| 2026-04-23 13:26 | 18.09210 | 55.15530 | 34811 ft | 468 kts | 209° |
| 2026-04-23 13:27 | 18.03224 | 55.12834 | 34804 ft | 468 kts | 209° |
| 2026-04-23 13:27 | 17.97232 | 55.10143 | 34809 ft | 468 kts | 209° |
| 2026-04-23 13:28 | 17.91237 | 55.07452 | 34808 ft | 468 kts | 209° |
| 2026-04-23 13:28 | 17.85244 | 55.04765 | 34811 ft | 469 kts | 209° |
| 2026-04-23 13:29 | 17.79245 | 55.02077 | 34818 ft | 469 kts | 209° |
| 2026-04-23 13:29 | 17.73245 | 54.99391 | 34820 ft | 469 kts | 209° |
| 2026-04-23 13:30 | 17.67243 | 54.96706 | 34829 ft | 469 kts | 209° |
| 2026-04-23 13:30 | 17.61234 | 54.94019 | 34836 ft | 469 kts | 209° |
| 2026-04-23 13:31 | 17.55270 | 54.91354 | 34844 ft | 469 kts | 209° |
| 2026-04-23 13:31 | 17.49261 | 54.88671 | 34848 ft | 470 kts | 209° |
| 2026-04-23 13:32 | 17.43252 | 54.85991 | 34853 ft | 469 kts | 209° |
| 2026-04-23 13:32 | 17.37244 | 54.83313 | 34861 ft | 469 kts | 209° |
| 2026-04-23 13:33 | 17.31239 | 54.80638 | 34862 ft | 469 kts | 209° |
| 2026-04-23 13:33 | 17.25422 | 54.77692 | 34865 ft | 458 kts | 220° |
| 2026-04-23 13:34 | 17.20033 | 54.74078 | 34865 ft | 460 kts | 218° |
| 2026-04-23 13:34 | 17.14635 | 54.70469 | 34860 ft | 460 kts | 218° |
| 2026-04-23 13:35 | 17.09251 | 54.66867 | 34860 ft | 460 kts | 218° |
| 2026-04-23 13:35 | 17.03856 | 54.63261 | 34859 ft | 460 kts | 218° |
| 2026-04-23 13:36 | 16.98463 | 54.59658 | 34856 ft | 460 kts | 218° |
| 2026-04-23 13:36 | 16.93068 | 54.56056 | 34851 ft | 461 kts | 218° |
| 2026-04-23 13:37 | 16.87664 | 54.52451 | 34844 ft | 461 kts | 218° |
| 2026-04-23 13:37 | 16.82256 | 54.48843 | 34839 ft | 462 kts | 218° |
| 2026-04-23 13:38 | 16.76839 | 54.45232 | 34839 ft | 462 kts | 218° |
| 2026-04-23 13:38 | 16.72331 | 54.42230 | 34831 ft | 463 kts | 218° |
| 2026-04-23 13:39 | 16.66898 | 54.38612 | 34834 ft | 463 kts | 218° |
| 2026-04-23 13:39 | 16.61462 | 54.34996 | 34835 ft | 464 kts | 218° |
| 2026-04-23 13:40 | 16.56022 | 54.31379 | 34832 ft | 464 kts | 218° |
| 2026-04-23 13:40 | 16.50567 | 54.27755 | 34838 ft | 465 kts | 218° |
| 2026-04-23 13:41 | 16.45117 | 54.24137 | 34837 ft | 465 kts | 218° |
| 2026-04-23 13:41 | 16.39657 | 54.20514 | 34837 ft | 465 kts | 218° |
| 2026-04-23 13:42 | 16.34197 | 54.16894 | 34835 ft | 465 kts | 218° |
| 2026-04-23 13:42 | 16.28740 | 54.13278 | 34836 ft | 465 kts | 218° |
| 2026-04-23 13:43 | 16.23286 | 54.09666 | 34839 ft | 465 kts | 218° |
| 2026-04-23 13:43 | 16.17871 | 54.06084 | 34841 ft | 464 kts | 218° |
| 2026-04-23 13:44 | 16.12419 | 54.02479 | 34842 ft | 464 kts | 218° |
| 2026-04-23 13:44 | 16.06977 | 53.98883 | 34843 ft | 464 kts | 218° |
| 2026-04-23 13:45 | 16.01529 | 53.95285 | 34843 ft | 464 kts | 218° |
| 2026-04-23 13:45 | 15.96079 | 53.91688 | 34841 ft | 464 kts | 218° |
| 2026-04-23 13:46 | 15.90641 | 53.88100 | 34842 ft | 463 kts | 218° |
| 2026-04-23 13:46 | 15.85213 | 53.84485 | 34842 ft | 463 kts | 218° |
| 2026-04-23 13:47 | 15.79801 | 53.80867 | 34841 ft | 463 kts | 218° |
| 2026-04-23 13:47 | 15.74392 | 53.77254 | 34842 ft | 462 kts | 219° |
| 2026-04-23 13:48 | 15.68978 | 53.73641 | 34841 ft | 462 kts | 219° |
| 2026-04-23 13:48 | 15.63572 | 53.70036 | 34841 ft | 462 kts | 219° |
| 2026-04-23 13:49 | 15.58161 | 53.66429 | 34843 ft | 462 kts | 219° |
| 2026-04-23 13:49 | 15.52755 | 53.62828 | 34841 ft | 462 kts | 219° |
| 2026-04-23 13:50 | 15.47346 | 53.59227 | 34841 ft | 462 kts | 219° |
| 2026-04-23 13:50 | 15.44826 | 53.57233 | 34827 ft | 451 kts | 232° |
| 2026-04-23 13:50 | 15.42965 | 53.54698 | 34839 ft | 437 kts | 246° |
| 2026-04-23 13:51 | 15.40209 | 53.49077 | 34840 ft | 437 kts | 249° |
| 2026-04-23 13:51 | 15.37603 | 53.43386 | 34842 ft | 437 kts | 250° |
| 2026-04-23 13:52 | 15.35046 | 53.37678 | 34841 ft | 436 kts | 250° |
| 2026-04-23 13:52 | 15.32517 | 53.32011 | 34842 ft | 436 kts | 250° |
| 2026-04-23 13:53 | 15.29973 | 53.26312 | 34843 ft | 436 kts | 250° |
| 2026-04-23 13:53 | 15.27424 | 53.20608 | 34839 ft | 436 kts | 250° |
| 2026-04-23 13:54 | 15.24877 | 53.14911 | 34840 ft | 436 kts | 250° |
| 2026-04-23 13:54 | 15.22329 | 53.09217 | 34840 ft | 436 kts | 249° |
| 2026-04-23 13:55 | 15.19780 | 53.03526 | 34840 ft | 436 kts | 249° |
| 2026-04-23 13:55 | 15.17230 | 52.97838 | 34837 ft | 435 kts | 249° |
| 2026-04-23 13:56 | 15.14681 | 52.92154 | 34835 ft | 435 kts | 249° |
| 2026-04-23 13:56 | 15.12129 | 52.86471 | 34836 ft | 435 kts | 249° |
| 2026-04-23 13:57 | 15.09577 | 52.80791 | 34837 ft | 435 kts | 249° |
| 2026-04-23 13:57 | 15.07025 | 52.75115 | 34836 ft | 435 kts | 249° |
| 2026-04-23 13:58 | 15.04470 | 52.69438 | 34837 ft | 435 kts | 249° |
| 2026-04-23 13:58 | 15.01912 | 52.63757 | 34833 ft | 435 kts | 249° |
| 2026-04-23 13:59 | 14.99370 | 52.58118 | 34835 ft | 436 kts | 249° |
| 2026-04-23 13:59 | 14.96807 | 52.52437 | 34836 ft | 436 kts | 249° |
| 2026-04-23 14:00 | 14.94662 | 52.47685 | 34834 ft | 436 kts | 249° |
| 2026-04-23 14:00 | 14.91680 | 52.41083 | 34835 ft | 436 kts | 249° |
| 2026-04-23 14:01 | 14.89112 | 52.35402 | 34832 ft | 436 kts | 249° |
| 2026-04-23 14:01 | 14.86534 | 52.29724 | 34830 ft | 437 kts | 249° |
| 2026-04-23 14:02 | 14.83920 | 52.24054 | 34832 ft | 437 kts | 249° |
| 2026-04-23 14:02 | 14.81310 | 52.18385 | 34839 ft | 437 kts | 249° |
| 2026-04-23 14:03 | 14.78696 | 52.12713 | 34826 ft | 437 kts | 249° |
| 2026-04-23 14:03 | 14.76081 | 52.07043 | 34825 ft | 437 kts | 249° |
| 2026-04-23 14:04 | 14.73466 | 52.01377 | 34832 ft | 437 kts | 249° |
| 2026-04-23 14:04 | 14.70847 | 51.95706 | 34822 ft | 437 kts | 249° |
| 2026-04-23 14:05 | 14.68228 | 51.90041 | 34829 ft | 437 kts | 249° |
| 2026-04-23 14:05 | 14.65627 | 51.84367 | 34825 ft | 437 kts | 249° |
| 2026-04-23 14:06 | 14.63034 | 51.78681 | 34829 ft | 438 kts | 249° |
| 2026-04-23 14:06 | 14.60436 | 51.72992 | 34830 ft | 438 kts | 249° |
| 2026-04-23 14:07 | 14.57836 | 51.67302 | 34828 ft | 439 kts | 249° |
| 2026-04-23 14:07 | 14.53945 | 51.58796 | 34830 ft | 439 kts | 249° |
| 2026-04-23 14:08 | 14.51320 | 51.53063 | 34838 ft | 439 kts | 249° |
| 2026-04-23 14:08 | 14.48705 | 51.47358 | 34833 ft | 440 kts | 249° |
| 2026-04-23 14:09 | 14.46108 | 51.41693 | 34824 ft | 440 kts | 248° |
| 2026-04-23 14:09 | 14.43490 | 51.35989 | 34827 ft | 440 kts | 248° |
| 2026-04-23 14:10 | 14.40868 | 51.30281 | 34827 ft | 440 kts | 248° |
| 2026-04-23 14:10 | 14.38246 | 51.24574 | 34824 ft | 441 kts | 248° |
| 2026-04-23 14:11 | 14.35619 | 51.18864 | 34824 ft | 441 kts | 248° |
| 2026-04-23 14:11 | 14.32990 | 51.13152 | 34826 ft | 441 kts | 248° |
| 2026-04-23 14:12 | 14.30356 | 51.07434 | 34821 ft | 441 kts | 248° |
| 2026-04-23 14:12 | 14.27719 | 51.01714 | 34831 ft | 442 kts | 248° |
| 2026-04-23 14:13 | 14.25080 | 50.95993 | 34829 ft | 442 kts | 248° |
| 2026-04-23 14:13 | 14.22432 | 50.90258 | 34827 ft | 443 kts | 248° |
| 2026-04-23 14:14 | 14.19785 | 50.84529 | 34829 ft | 443 kts | 248° |
| 2026-04-23 14:14 | 14.17131 | 50.78790 | 34822 ft | 444 kts | 248° |
| 2026-04-23 14:15 | 14.14477 | 50.73052 | 34819 ft | 443 kts | 249° |
| 2026-04-23 14:15 | 14.11824 | 50.67323 | 34820 ft | 443 kts | 249° |
| 2026-04-23 14:16 | 14.08861 | 50.61734 | 34823 ft | 445 kts | 245° |
| 2026-04-23 14:16 | 14.05864 | 50.56162 | 34827 ft | 444 kts | 246° |
| 2026-04-23 14:17 | 14.02876 | 50.50586 | 34818 ft | 444 kts | 246° |
| 2026-04-23 14:17 | 13.99894 | 50.45020 | 34819 ft | 444 kts | 246° |
| 2026-04-23 14:18 | 13.96912 | 50.39461 | 34821 ft | 443 kts | 245° |
| 2026-04-23 14:18 | 13.93952 | 50.33944 | 34817 ft | 443 kts | 245° |
| 2026-04-23 14:19 | 13.90974 | 50.28399 | 34819 ft | 443 kts | 245° |
| 2026-04-23 14:19 | 13.87994 | 50.22853 | 34820 ft | 443 kts | 245° |
| 2026-04-23 14:20 | 13.85015 | 50.17314 | 34820 ft | 442 kts | 245° |
| 2026-04-23 14:20 | 13.82036 | 50.11777 | 34821 ft | 442 kts | 245° |
| 2026-04-23 14:21 | 13.79056 | 50.06236 | 34822 ft | 442 kts | 245° |
| 2026-04-23 14:21 | 13.76085 | 50.00695 | 34821 ft | 442 kts | 245° |
| 2026-04-23 14:22 | 13.73110 | 49.95151 | 34815 ft | 443 kts | 245° |
| 2026-04-23 14:22 | 13.70133 | 49.89606 | 34813 ft | 443 kts | 245° |
| 2026-04-23 14:23 | 13.67153 | 49.84060 | 34816 ft | 443 kts | 245° |
| 2026-04-23 14:23 | 13.64171 | 49.78514 | 34817 ft | 444 kts | 245° |
| 2026-04-23 14:24 | 13.61183 | 49.72961 | 34815 ft | 444 kts | 245° |
| 2026-04-23 14:24 | 13.58193 | 49.67406 | 34814 ft | 444 kts | 245° |
| 2026-04-23 14:25 | 13.55197 | 49.61846 | 34810 ft | 445 kts | 245° |
| 2026-04-23 14:25 | 13.52200 | 49.56287 | 34809 ft | 445 kts | 244° |
| 2026-04-23 14:26 | 13.49199 | 49.50725 | 34809 ft | 445 kts | 244° |
| 2026-04-23 14:26 | 13.46195 | 49.45159 | 34808 ft | 445 kts | 244° |
| 2026-04-23 14:27 | 13.43190 | 49.39596 | 34809 ft | 445 kts | 244° |
| 2026-04-23 14:27 | 13.40185 | 49.34036 | 34806 ft | 445 kts | 244° |
| 2026-04-23 14:28 | 13.37685 | 49.29413 | 34810 ft | 445 kts | 244° |
| 2026-04-23 14:28 | 13.34677 | 49.23855 | 34810 ft | 445 kts | 244° |
| 2026-04-23 14:29 | 13.31682 | 49.18300 | 34805 ft | 445 kts | 245° |
| 2026-04-23 14:29 | 13.28712 | 49.12729 | 34804 ft | 444 kts | 245° |
| 2026-04-23 14:30 | 13.25743 | 49.07167 | 34806 ft | 444 kts | 245° |
| 2026-04-23 14:30 | 13.22777 | 49.01614 | 34805 ft | 444 kts | 245° |
| 2026-04-23 14:31 | 13.19810 | 48.96065 | 34802 ft | 443 kts | 245° |
| 2026-04-23 14:31 | 13.16846 | 48.90523 | 34803 ft | 443 kts | 245° |
| 2026-04-23 14:32 | 13.13883 | 48.84988 | 34800 ft | 442 kts | 245° |
| 2026-04-23 14:32 | 13.10920 | 48.79456 | 34798 ft | 442 kts | 245° |
| 2026-04-23 14:33 | 13.07960 | 48.73932 | 34795 ft | 442 kts | 245° |
| 2026-04-23 14:33 | 13.04999 | 48.68413 | 34796 ft | 442 kts | 245° |
| 2026-04-23 14:34 | 13.02042 | 48.62902 | 34799 ft | 441 kts | 245° |
| 2026-04-23 14:34 | 12.99081 | 48.57388 | 34794 ft | 441 kts | 245° |
| 2026-04-23 14:35 | 12.96120 | 48.51876 | 34796 ft | 441 kts | 245° |
| 2026-04-23 14:35 | 12.93159 | 48.46369 | 34793 ft | 441 kts | 245° |
| 2026-04-23 14:36 | 12.90213 | 48.40894 | 34794 ft | 441 kts | 245° |
| 2026-04-23 14:36 | 12.87231 | 48.35354 | 34790 ft | 441 kts | 245° |
| 2026-04-23 14:37 | 12.84285 | 48.29884 | 34791 ft | 441 kts | 245° |
| 2026-04-23 14:37 | 12.81319 | 48.24383 | 34790 ft | 441 kts | 245° |
| 2026-04-23 14:38 | 12.78353 | 48.18882 | 34790 ft | 441 kts | 245° |
| 2026-04-23 14:38 | 12.75384 | 48.13381 | 34791 ft | 441 kts | 245° |
| 2026-04-23 14:39 | 12.72414 | 48.07882 | 34786 ft | 441 kts | 245° |
| 2026-04-23 14:39 | 12.69443 | 48.02382 | 34791 ft | 441 kts | 245° |
| 2026-04-23 14:40 | 12.66469 | 47.96881 | 34791 ft | 442 kts | 245° |
| 2026-04-23 14:40 | 12.63491 | 47.91378 | 34787 ft | 442 kts | 245° |
| 2026-04-23 14:41 | 12.60512 | 47.85873 | 34788 ft | 442 kts | 245° |
| 2026-04-23 14:41 | 12.57530 | 47.80368 | 34790 ft | 442 kts | 245° |
| 2026-04-23 14:42 | 12.54545 | 47.74861 | 34788 ft | 442 kts | 245° |
| 2026-04-23 14:42 | 12.51559 | 47.69354 | 34788 ft | 443 kts | 245° |
| 2026-04-23 14:43 | 12.48568 | 47.63843 | 34788 ft | 443 kts | 245° |
| 2026-04-23 14:43 | 12.45597 | 47.58369 | 34783 ft | 443 kts | 245° |
| 2026-04-23 14:44 | 12.42605 | 47.52862 | 34783 ft | 443 kts | 245° |
| 2026-04-23 14:44 | 12.40524 | 47.47065 | 34788 ft | 431 kts | 267° |
| 2026-04-23 14:45 | 12.39977 | 47.40900 | 34781 ft | 433 kts | 268° |
| 2026-04-23 14:45 | 12.39531 | 47.34755 | 34782 ft | 433 kts | 268° |
| 2026-04-23 14:46 | 12.39124 | 47.28648 | 34784 ft | 433 kts | 268° |
| 2026-04-23 14:46 | 12.38720 | 47.22503 | 34782 ft | 433 kts | 268° |
| 2026-04-23 14:47 | 12.38314 | 47.16350 | 34780 ft | 433 kts | 268° |
| 2026-04-23 14:47 | 12.37906 | 47.10200 | 34783 ft | 434 kts | 268° |
| 2026-04-23 14:48 | 12.37506 | 47.04052 | 34780 ft | 434 kts | 269° |
| 2026-04-23 14:48 | 12.37120 | 46.97894 | 34779 ft | 434 kts | 269° |
| 2026-04-23 14:49 | 12.36730 | 46.91731 | 34782 ft | 434 kts | 269° |
| 2026-04-23 14:49 | 12.36340 | 46.85577 | 34782 ft | 434 kts | 269° |
| 2026-04-23 14:50 | 12.35948 | 46.79413 | 34783 ft | 434 kts | 269° |
| 2026-04-23 14:50 | 12.35555 | 46.73257 | 34778 ft | 434 kts | 269° |
| 2026-04-23 14:51 | 12.35160 | 46.67097 | 34782 ft | 434 kts | 268° |
| 2026-04-23 14:51 | 12.34764 | 46.60938 | 34773 ft | 434 kts | 268° |
| 2026-04-23 14:52 | 12.34367 | 46.54785 | 34780 ft | 434 kts | 268° |
| 2026-04-23 14:52 | 12.33969 | 46.48629 | 34778 ft | 434 kts | 268° |
| 2026-04-23 14:53 | 12.33569 | 46.42475 | 34777 ft | 434 kts | 268° |
| 2026-04-23 14:53 | 12.33168 | 46.36324 | 34777 ft | 434 kts | 268° |
| 2026-04-23 14:54 | 12.32765 | 46.30166 | 34773 ft | 434 kts | 268° |
| 2026-04-23 14:54 | 12.32360 | 46.24008 | 34778 ft | 434 kts | 268° |
| 2026-04-23 14:55 | 12.31955 | 46.17849 | 34774 ft | 434 kts | 268° |
| 2026-04-23 14:55 | 12.31548 | 46.11695 | 34777 ft | 434 kts | 268° |
| 2026-04-23 14:56 | 12.31140 | 46.05541 | 34779 ft | 434 kts | 268° |
| 2026-04-23 14:56 | 12.30730 | 45.99388 | 34776 ft | 434 kts | 268° |
| 2026-04-23 14:57 | 12.30322 | 45.93271 | 34778 ft | 434 kts | 268° |
| 2026-04-23 14:57 | 12.29906 | 45.87075 | 34782 ft | 434 kts | 268° |
| 2026-04-23 14:58 | 12.29496 | 45.80973 | 34780 ft | 434 kts | 268° |
| 2026-04-23 14:58 | 12.29081 | 45.74816 | 34782 ft | 434 kts | 268° |
| 2026-04-23 14:59 | 12.28664 | 45.68663 | 34781 ft | 434 kts | 268° |
| 2026-04-23 14:59 | 12.28246 | 45.62510 | 34784 ft | 434 kts | 268° |
| 2026-04-23 15:00 | 12.27827 | 45.56354 | 34782 ft | 434 kts | 268° |
| 2026-04-23 15:00 | 12.27407 | 45.50200 | 34774 ft | 434 kts | 268° |
| 2026-04-23 15:01 | 12.26985 | 45.44046 | 34777 ft | 434 kts | 268° |
| 2026-04-23 15:01 | 12.26573 | 45.37890 | 34780 ft | 434 kts | 268° |
| 2026-04-23 15:02 | 12.26181 | 45.31733 | 34783 ft | 434 kts | 268° |
| 2026-04-23 15:02 | 12.25785 | 45.25570 | 34775 ft | 434 kts | 268° |
| 2026-04-23 15:03 | 12.25388 | 45.19408 | 34781 ft | 434 kts | 268° |
| 2026-04-23 15:03 | 12.24990 | 45.13246 | 34781 ft | 435 kts | 268° |
| 2026-04-23 15:04 | 12.24591 | 45.07080 | 34772 ft | 435 kts | 268° |
| 2026-04-23 15:04 | 12.24189 | 45.00906 | 34774 ft | 435 kts | 268° |
| 2026-04-23 15:05 | 12.23786 | 44.94737 | 34767 ft | 435 kts | 268° |
| 2026-04-23 15:05 | 12.23381 | 44.88560 | 34766 ft | 436 kts | 268° |
| 2026-04-23 15:06 | 12.22975 | 44.82377 | 34769 ft | 436 kts | 268° |
| 2026-04-23 15:06 | 12.22569 | 44.76227 | 34765 ft | 436 kts | 268° |
| 2026-04-23 15:07 | 12.21688 | 44.70098 | 34764 ft | 440 kts | 253° |
| 2026-04-23 15:07 | 12.19745 | 44.64159 | 34769 ft | 441 kts | 255° |
| 2026-04-23 15:08 | 12.17924 | 44.58163 | 34759 ft | 441 kts | 256° |
| 2026-04-23 15:09 | 12.15197 | 44.49128 | 34762 ft | 442 kts | 256° |
| 2026-04-23 15:09 | 12.13396 | 44.43166 | 34762 ft | 442 kts | 256° |
| 2026-04-23 15:10 | 12.11877 | 44.38141 | 34756 ft | 442 kts | 256° |
| 2026-04-23 15:10 | 12.09769 | 44.31171 | 34760 ft | 442 kts | 255° |
| 2026-04-23 15:11 | 12.07953 | 44.25176 | 34759 ft | 442 kts | 256° |
| 2026-04-23 15:11 | 12.06138 | 44.19188 | 34757 ft | 442 kts | 256° |
| 2026-04-23 15:12 | 12.04318 | 44.13185 | 34756 ft | 442 kts | 256° |
| 2026-04-23 15:12 | 12.02500 | 44.07199 | 34755 ft | 442 kts | 256° |
| 2026-04-23 15:13 | 12.00677 | 44.01198 | 34754 ft | 442 kts | 256° |
| 2026-04-23 15:13 | 11.98852 | 43.95198 | 34761 ft | 443 kts | 256° |
| 2026-04-23 15:14 | 11.97027 | 43.89201 | 34761 ft | 443 kts | 256° |
| 2026-04-23 15:14 | 11.95195 | 43.83185 | 34760 ft | 443 kts | 256° |
| 2026-04-23 15:15 | 11.93363 | 43.77174 | 34760 ft | 444 kts | 255° |
| 2026-04-23 15:15 | 11.91526 | 43.71155 | 34761 ft | 444 kts | 255° |
| 2026-04-23 15:16 | 11.89686 | 43.65128 | 34761 ft | 444 kts | 255° |
| 2026-04-23 15:16 | 11.88074 | 43.60146 | 34754 ft | 447 kts | 248° |
| 2026-04-23 15:17 | 11.84748 | 43.54740 | 34761 ft | 452 kts | 240° |
| 2026-04-23 15:17 | 11.81270 | 43.49394 | 34761 ft | 452 kts | 240° |
| 2026-04-23 15:18 | 11.78587 | 43.45315 | 34763 ft | 452 kts | 239° |
| 2026-04-23 15:19 | 11.75079 | 43.39994 | 34769 ft | 452 kts | 239° |
| 2026-04-23 15:19 | 11.71595 | 43.34708 | 34767 ft | 452 kts | 239° |
| 2026-04-23 15:20 | 11.68065 | 43.29357 | 34770 ft | 452 kts | 239° |
| 2026-04-23 15:20 | 11.64579 | 43.24076 | 34772 ft | 452 kts | 239° |
| 2026-04-23 15:21 | 11.61068 | 43.18760 | 34775 ft | 452 kts | 239° |
| 2026-04-23 15:21 | 11.57558 | 43.13448 | 34777 ft | 452 kts | 239° |
| 2026-04-23 15:22 | 11.54217 | 43.08040 | 34784 ft | 448 kts | 245° |
| 2026-04-23 15:22 | 11.51238 | 43.02437 | 34784 ft | 450 kts | 244° |
| 2026-04-23 15:23 | 11.48204 | 42.96851 | 34787 ft | 451 kts | 244° |
| 2026-04-23 15:23 | 11.45159 | 42.91267 | 34790 ft | 451 kts | 244° |
| 2026-04-23 15:24 | 11.42114 | 42.85685 | 34795 ft | 451 kts | 244° |
| 2026-04-23 15:24 | 11.39064 | 42.80099 | 34793 ft | 451 kts | 244° |
| 2026-04-23 15:25 | 11.36011 | 42.74509 | 34792 ft | 452 kts | 244° |
| 2026-04-23 15:25 | 11.32955 | 42.68918 | 34795 ft | 452 kts | 244° |
| 2026-04-23 15:26 | 11.29892 | 42.63316 | 34788 ft | 452 kts | 244° |
| 2026-04-23 15:26 | 11.26831 | 42.57720 | 34787 ft | 452 kts | 244° |
| 2026-04-23 15:27 | 11.23764 | 42.52118 | 34785 ft | 452 kts | 244° |
| 2026-04-23 15:27 | 11.20699 | 42.46523 | 34780 ft | 452 kts | 244° |
| 2026-04-23 15:28 | 11.17636 | 42.40932 | 34776 ft | 452 kts | 244° |
| 2026-04-23 15:28 | 11.14566 | 42.35335 | 34770 ft | 452 kts | 244° |
| 2026-04-23 15:29 | 11.11501 | 42.29749 | 34759 ft | 452 kts | 244° |
| 2026-04-23 15:29 | 11.08431 | 42.24155 | 34755 ft | 452 kts | 244° |
| 2026-04-23 15:30 | 11.05361 | 42.18565 | 34753 ft | 452 kts | 244° |
| 2026-04-23 15:30 | 11.02026 | 42.13125 | 34749 ft | 454 kts | 240° |
| 2026-04-23 15:31 | 10.98582 | 42.07739 | 34746 ft | 454 kts | 240° |
| 2026-04-23 15:31 | 10.95155 | 42.02344 | 34747 ft | 454 kts | 240° |
| 2026-04-23 15:32 | 10.91734 | 41.96957 | 34741 ft | 454 kts | 240° |
| 2026-04-23 15:32 | 10.88309 | 41.91566 | 34744 ft | 453 kts | 240° |
| 2026-04-23 15:33 | 10.84883 | 41.86176 | 34744 ft | 453 kts | 240° |
| 2026-04-23 15:33 | 10.81456 | 41.80790 | 34748 ft | 453 kts | 240° |
| 2026-04-23 15:34 | 10.79016 | 41.76954 | 34754 ft | 453 kts | 240° |
| 2026-04-23 15:34 | 10.76231 | 41.72579 | 34754 ft | 454 kts | 240° |
| 2026-04-23 15:35 | 10.72800 | 41.67191 | 34753 ft | 454 kts | 240° |
| 2026-04-23 15:35 | 10.69390 | 41.61839 | 34759 ft | 454 kts | 240° |
| 2026-04-23 15:36 | 10.65958 | 41.56455 | 34761 ft | 454 kts | 240° |
| 2026-04-23 15:36 | 10.62521 | 41.51066 | 34763 ft | 454 kts | 240° |
| 2026-04-23 15:37 | 10.59082 | 41.45677 | 34762 ft | 454 kts | 240° |
| 2026-04-23 15:37 | 10.55644 | 41.40291 | 34762 ft | 454 kts | 240° |
| 2026-04-23 15:38 | 10.52206 | 41.34909 | 34765 ft | 454 kts | 240° |
| 2026-04-23 15:38 | 10.48766 | 41.29526 | 34766 ft | 454 kts | 240° |
| 2026-04-23 15:39 | 10.45324 | 41.24141 | 34763 ft | 454 kts | 240° |
| 2026-04-23 15:39 | 10.41883 | 41.18761 | 34768 ft | 454 kts | 240° |
| 2026-04-23 15:40 | 10.38439 | 41.13381 | 34767 ft | 454 kts | 240° |
| 2026-04-23 15:40 | 10.34999 | 41.08007 | 34765 ft | 454 kts | 240° |
| 2026-04-23 15:41 | 10.31556 | 41.02632 | 34761 ft | 454 kts | 240° |
| 2026-04-23 15:41 | 10.28113 | 40.97260 | 34764 ft | 454 kts | 240° |
| 2026-04-23 15:42 | 10.24667 | 40.91885 | 34767 ft | 454 kts | 240° |
| 2026-04-23 15:42 | 10.21221 | 40.86514 | 34763 ft | 454 kts | 240° |
| 2026-04-23 15:43 | 10.17796 | 40.81177 | 34764 ft | 454 kts | 239° |
| 2026-04-23 15:43 | 10.14349 | 40.75808 | 34760 ft | 454 kts | 239° |
| 2026-04-23 15:44 | 10.10898 | 40.70435 | 34761 ft | 454 kts | 239° |
| 2026-04-23 15:44 | 10.07444 | 40.65062 | 34765 ft | 455 kts | 239° |
| 2026-04-23 15:45 | 10.03987 | 40.59686 | 34762 ft | 455 kts | 239° |
| 2026-04-23 15:45 | 10.00531 | 40.54312 | 34765 ft | 455 kts | 239° |
| 2026-04-23 15:46 | 9.97069 | 40.48933 | 34766 ft | 455 kts | 239° |
| 2026-04-23 15:46 | 9.93608 | 40.43558 | 34772 ft | 455 kts | 239° |
| 2026-04-23 15:47 | 9.90141 | 40.38176 | 34778 ft | 456 kts | 239° |
| 2026-04-23 15:47 | 9.86673 | 40.32794 | 34776 ft | 456 kts | 239° |
| 2026-04-23 15:48 | 9.83205 | 40.27416 | 34786 ft | 456 kts | 239° |
| 2026-04-23 15:48 | 9.79738 | 40.22041 | 34795 ft | 456 kts | 239° |
| 2026-04-23 15:49 | 9.76264 | 40.16658 | 34800 ft | 456 kts | 239° |
| 2026-04-23 15:49 | 9.72792 | 40.11280 | 34816 ft | 456 kts | 239° |
| 2026-04-23 15:50 | 9.69311 | 40.05890 | 34832 ft | 459 kts | 239° |
| 2026-04-23 15:50 | 9.65790 | 40.00441 | 34845 ft | 463 kts | 239° |
| 2026-04-23 15:51 | 9.62259 | 39.94981 | 34864 ft | 463 kts | 239° |
| 2026-04-23 15:51 | 9.58725 | 39.89517 | 34879 ft | 464 kts | 239° |
| 2026-04-23 15:52 | 9.55213 | 39.84089 | 34893 ft | 463 kts | 239° |
| 2026-04-23 15:52 | 9.51680 | 39.78632 | 34909 ft | 463 kts | 239° |
| 2026-04-23 15:53 | 9.48146 | 39.73174 | 34922 ft | 463 kts | 239° |
| 2026-04-23 15:53 | 9.45710 | 39.69416 | 34934 ft | 464 kts | 239° |